EA1JAY-4
43.21.54N 005.51.34W
IN73BI aprs.fi
zuletzt gehoert:
2022-08-15T21:30:05Z
zuerst gehoert:
2020-07-13T19:34:40Z

APRS Oviedo [IN73BI], 2 Stunde(n), EA1JAY-4 [23:51:02, 0s].
EB1JAJ 43.21.72N 005.51.82WIN73BI 1.108km 311°NW21:32:04ZMMDVM MMDVM HS Dual Hat 438.0250/431.0250 CC1(3EB1JAJ-2)
EA1L 43.20.37N 005.51.13WIN73BI 1.752km 177°S21:50:06Zea1l@ure.es V=13.3V
Wind 076°/000kn, Böen bis 000kn, Temp 18.33c, Regen 0.0mm, letzte 24h 0.0mm, seit 0h 0.0mm, Baro 1008.6h, Hum: 84%(2EA1L-13)
LEHU 43.22.63N 005.49.57WIN73CJ 3.262km 42°NE21:30:03ZHelipuerto del HUCA: LEAS 152030Z 18003KT 140V250 9999 BKN027 20/16 Q1010 NOSIG=
EA1HWX 43.19.28N 005.50.98WIN73BH 3.799km 175°S21:32:03ZDMO - UHF 439.7250/431.0000 CC11(3EA1HWX-2)
MMDVM DMO 222.3400/222.3400 CC1(2EA1HWX-10)
ED1ZAU 43.23.04N 005.52.75WIN73BJ 3.808km 327°NNW21:32:19ZRD625 438.5000/430.9000 CC1
EA1ABW 43.24.77N 005.47.77WIN73CJ 7.891km 36°NE21:30:20ZMMDVM MMDVM HS Hat 439.8250/439.8250 CC1(3EA1ABW-2)
LEMR 43.25.83N 005.49.60WIN73CK 8.621km 14°NNE21:30:03ZAerodromo de la Morgal (123.500MHz): LEAS 152030Z 18003KT 140V250 9999 BKN027 20/16 Q1010 NOSIG=
LEGM 43.26.15N 005.49.84WIN73CK 9.147km 12°NNE21:30:03ZHelipuerto de La Morgal (123.500MHz): LEAS 152030Z 18003KT 140V250 9999 BKN027 20/16 Q1010 NOSIG=
EA1IPU 43.26.21N 005.46.62WIN73CK 10.972km 34°NE21:31:02ZMMDVM MMDVM HS Hat 439.8000/439.8000 CC1(3EA1IPU-1)
EA1IMW 43.14.36N 005.46.93WIN73CF 14.133km 156°SSE21:32:00ZGRUPO RADIO GALENA (GRG) 430.4500/430.4500 CC1(3EA1IMW-1)
ED1ZAY 43.29.47N 005.56.54WIN73AL 16.738km 335°NNW21:32:18ZRD625 438.3000/430.7000 CC1
EA1JBL 43.12.28N 005.47.42WIN73CE 17.497km 163°SSE21:30:15ZMMDVM DVMega 435.3000/435.3000 CC1
EB1DGC 43.12.60N 005.45.59WIN73CF 17.845km 155°SSE21:30:20ZMMDVM MMDVM HS Hat 433.4500/433.4500 CC1
EA1HWA 43.12.00N 005.47.40WIN73CE 18.023km 163°SSE21:31:24ZMMDVM MMDVM HS Hat 433.4500/433.4500 CC1
ED1ZAS 43.27.52N 005.40.17WIN73DL 18.774km 52°NE21:32:20ZRD985 438.2250/430.6250 CC1
ED1ZAE 43.27.99N 005.40.54WIN73DL 18.927km 49°NE21:42:23ZWIDE3-3 ESAS3-3 IN73DL WWW.EA1URG.ORG(3ED1ZAE-3)
EA1FLQ 43.22.00N 005.36.35WIN73EI 20.037km 86°E21:30:14ZMMDVM DVMega 439.9750/439.9750 CC1
EA1AHA 43.32.72N 005.54.38WIN73BN 21.562km 349°N21:33:46ZWind 225°/003kn, Böen bis 004kn, Temp 20.56c, Regen 0.0mm, letzte 24h 0.0mm, seit 0h 0.0mm, Baro 1011.8h, Hum: 73%(3EA1AHA-13)
EA1RCG 43.09.45N 005.49.78WIN73CD 22.066km 175°S21:30:56ZGRUPO RADIO GALENA (GRG) 430.4500/430.4500 CC1(3EA1RCG-3)
EA4ACU 43.29.56N 005.38.92WIN73EL 22.501km 47°NE21:31:49ZMMDVM MMDVM HS Hat 432.7000/432.7000 CC1(3EA4ACU-1)
EB1TK 43.32.22N 005.42.32WIN73DM 23.478km 31°NNE21:50:15ZWind 201°/004kn, Böen bis 007kn, Temp 20.00c, Regen 0.0mm, letzte 24h 0.0mm, seit 0h 0.0mm, Baro 1012.6h, Hum: 84%(3EB1TK-13)
EA1FFA 43.31.53N 005.40.64WIN73DM 23.672km 37°NE21:31:40ZMMDVM MMDVM HS Hat 438.8000/438.8000 CC1(3EA1FFA-1)
EC1AIJ 43.19.77N 005.33.49WIN73FH 24.044km 97°E21:30:41ZMMDVM MMDVM HS Hat 432.9800/432.9800 CC1
EA1DZR 43.31.48N 005.40.00WIN73EM 24.112km 39°NE21:32:11ZMMDVM DVMega 431.1000/431.1000 CC1(3EA1DZR-1)
MMDVM MMDVM HS Hat 432.1000/432.1000 CC2(2EA1DZR-2)
MMDVM DV ADER 434.3500/434.3500 CC1(2EA1DZR-4)
EA1IEJ 43.31.81N 005.40.17WIN73DM 24.467km 37°NE21:30:25ZMMDVM DMO 222.3400/222.3400 CC1(3EA1IEJ-11)
MMDVM MMDVM HS Hat 438.8500/438.8500 CC6(2EA1IEJ-1)
LEEL 43.32.98N 005.41.71WIN73DN 25.084km 31°NNE21:30:04ZHelipuerto de El Musel: LEAS 152030Z 18003KT 140V250 9999 BKN027 20/16 Q1010 NOSIG=
EB1GEM 43.30.00N 005.36.07WIN73EM 25.958km 52°NE21:40:37ZWX3in1Plus2.0 U=13.3V,T=??.?C/??.?F(3EB1GEM-3)
ED1ZAD 43.07.90N 005.38.52WIN73ED 30.174km 145°SE21:49:33ZED1ZAD-3 APRS Digi/Igate(3ED1ZAD-3)
EA1HJA 43.28.10N 005.30.45WIN73FL 30.628km 66°ENE21:50:34Z IN73FL WX3IN1+ 2.0 - V=14.0V,TX TEMP=36.1C
IN73FL WX3IN1+ 2.0 - V=13.2V,TX TEMP=38.3C(2EA1HJA-2)
EA1FHR 43.28.72N 005.26.41WIN73GL 36.063km 68°ENE21:30:58ZMMDVM MMDVM HS Hat 439.1500/439.1500 CC1
EA1JAY 43.29.33N 005.26.78WIN73GL 36.070km 66°ENE21:30:04Z434.525MHz Nodo TETRA DMO(3EA1JAY-4)
EA1JAY(2EA1JAY-2)
EA1HWD 43.28.96N 005.26.30WIN73GL 36.382km 67°ENE21:30:27ZMMDVM MMDVM HS Hat 434.2500/434.2500 CC1
EC1KV 43.34.01N 006.16.01WIN63UN 40.812km 305°NW21:31:28ZALBUERNE(3EC1KV-1)
LETN 43.20.05N 006.22.69WIN63TI 42.508km 267°W21:30:04ZAerodromo de La Curiscada (Tineo): LEAS 152030Z 18003KT 140V250 9999 BKN027 20/16 Q1010 NOSIG=

aprs.pl 5.0.011w DL3EL © 2006-2021 [4414825]